Latest Weather Observations for Wellcamp Airport

IDQ60801

Issued at 4:02 pm EST Saturday 24 February 2018 (issued every 30 minutes, with the page automatically refreshed every 10 minutes)

About weather observations | Map of weather stations | Latest weather observations for QLD | Other Formats
Station Details ID: 541150 Name: WELLCAMP AIRPORT Lat: -27.55 Lon: 151.78 Height: 436.98 m
Data from the previous 72 hours. | See also: Recent months for locations in Queensland
Date/Time
EST
Temp
°C
App
Temp
°C
Dew
Point
°C
Rel
Hum
%
Delta-T
°C
Wind Press
QNH
hPa
Press
MSL
hPa
Rain since
9am
mm
Dir  Spd
km/h
Gust
km/h
Spd
kts
Gust
kts
24/04:00pm 22.4 24.3 22.1 98 0.2 NNW 15 22 8 12 1010.9 1008.4 14.0
24/03:30pm 21.9 22.8 21.6 98 0.2 NW 19 33 10 18 1011.0 1008.5 4.6
24/03:16pm 22.3 21.2 21.1 93 0.8 NW 28 48 15 26 1010.7 1008.2 0.6
24/03:13pm 23.3 23.6 21.6 90 1.1 NNW 22 44 12 24 1010.9 1008.4 0.2
24/03:00pm 27.9 27.4 20.7 65 4.8 E 24 32 13 17 1009.9 1007.4 0.0
24/02:30pm 29.0 28.0 20.4 59 5.8 E 26 35 14 19 1009.7 1007.2 0.0
24/02:00pm 30.2 30.2 21.0 58 6.2 ENE 22 37 12 20 1010.0 1007.5 0.0
24/01:30pm 29.4 30.4 20.3 58 6.1 E 15 28 8 15 1010.6 1008.1 0.0
24/01:00pm 29.8 30.2 20.6 57 6.2 ENE 19 28 10 15 1011.1 1008.6 0.0
24/12:30pm 28.6 29.9 20.9 63 5.2 ENE 15 26 8 14 1011.7 1009.2 0.0
24/12:00pm 28.6 29.1 21.1 64 5.1 ENE 20 30 11 16 1012.3 1009.8 0.0
24/11:30am 28.5 29.4 20.0 60 5.7 NE 15 24 8 13 1012.9 1010.4 0.0
24/11:00am 27.5 27.6 20.3 65 4.8 NNE 20 32 11 17 1013.4 1010.9 0.0
24/10:30am 27.2 27.5 20.5 67 4.5 NNE 19 26 10 14 1013.8 1011.3 0.0
24/10:00am 25.6 26.3 20.4 73 3.5 NNE 17 24 9 13 1014.2 1011.7 0.0
24/09:30am 25.4 26.1 20.4 74 3.3 NE 17 22 9 12 1014.3 1011.8 0.0
24/09:22am 25.2 26.8 20.7 76 3.0 NE 13 19 7 10 1014.4 1011.9 0.0
24/09:03am 24.8 26.4 20.7 78 2.7 NE 13 19 7 10 1014.5 1012.0 0.0
24/09:00am 24.8 26.4 20.7 78 2.7 NE 13 17 7 9 1014.5 1012.0 1.0
24/08:30am 23.5 24.6 20.4 83 2.0 ENE 15 22 8 12 1014.5 1012.0 1.0
24/08:00am 23.1 24.3 20.6 86 1.7 ENE 15 20 8 11 1014.5 1012.0 1.0
24/07:30am 22.5 23.3 20.6 89 1.3 ENE 17 20 9 11 1014.4 1011.9 1.0
24/07:00am 22.3 23.6 20.8 91 1.0 E 15 19 8 10 1014.4 1011.9 1.0
24/06:52am 22.2 23.8 20.8 92 0.9 E 13 17 7 9 1014.2 1011.7 1.0
24/06:30am 21.4 23.3 20.6 95 0.5 E 11 15 6 8 1014.1 1011.6 1.0
24/06:00am 21.2 23.0 20.4 95 0.5 ENE 11 19 6 10 1013.8 1011.3 1.0
24/05:57am 21.3 23.5 20.5 95 0.5 ENE 9 15 5 8 1013.8 1011.3 1.0
24/05:30am 21.2 23.8 20.4 95 0.5 ENE 7 11 4 6 1013.5 1011.0 1.0
24/05:00am 21.0 23.2 20.3 96 0.5 ENE 9 13 5 7 1013.2 1010.7 1.0
24/04:30am 21.0 23.1 20.2 95 0.5 ENE 9 13 5 7 1013.1 1010.6 1.0
24/04:00am 21.1 22.8 20.1 94 0.7 ENE 11 17 6 9 1012.9 1010.4 1.0
24/03:30am 21.2 22.5 20.2 94 0.7 ENE 13 19 7 10 1012.9 1010.4 1.0
24/03:17am 21.1 22.0 20.1 94 0.7 ENE 15 20 8 11 1012.9 1010.4 1.0
24/03:00am 21.3 22.7 20.3 94 0.7 E 13 20 7 11 1013.0 1010.5 1.0
24/02:30am 21.4 23.1 20.2 93 0.8 ENE 11 15 6 8 1013.2 1010.7 1.0
24/02:00am 21.5 23.7 20.3 93 0.8 ENE 9 13 5 7 1013.4 1010.9 1.0
24/01:56am 21.5 23.7 20.3 93 0.8 ENE 9 13 5 7 1013.5 1011.0 1.0
24/01:30am 21.5 23.0 20.5 94 0.7 E 13 15 7 8 1013.6 1011.1 1.0
24/01:00am 21.5 23.7 20.5 94 0.7 ENE 9 15 5 8 1014.0 1011.5 1.0
24/12:30am 21.5 23.4 20.5 94 0.7 E 11 17 6 9 1014.3 1011.8 1.0
24/12:00am 21.5 23.4 20.5 94 0.7 E 11 15 6 8 1014.6 1012.2 1.0
 
Date/Time
EST
Temp
°C
App
Temp
°C
Dew
Point
°C
Rel
Hum
%
Delta-T
°C
Wind Press
QNH
hPa
Press
MSL
hPa
Rain since
9am
mm
Dir  Spd
km/h
Gust
km/h
Spd
kts
Gust
kts
23/11:30pm 21.5 22.9 20.3 93 0.8 E 13 17 7 9 1014.7 1012.3 1.0
23/11:00pm 21.5 22.5 20.3 93 0.8 E 15 20 8 11 1014.8 1012.4 1.0
23/10:30pm 21.5 22.6 20.5 94 0.7 E 15 22 8 12 1014.8 1012.4 1.0
23/10:00pm 21.6 23.5 20.6 94 0.7 E 11 17 6 9 1015.0 1012.6 1.0
23/09:54pm 21.6 23.5 20.6 94 0.7 E 11 17 6 9 1015.0 1012.6 1.0
23/09:30pm 21.5 23.7 20.5 94 0.7 E 9 15 5 8 1015.2 1012.7 1.0
23/09:00pm 21.5 23.0 20.5 94 0.7 E 13 20 7 11 1015.2 1012.7 1.0
23/08:30pm 21.5 21.8 20.5 94 0.7 E 19 24 10 13 1014.7 1012.3 1.0
23/08:00pm 21.8 21.9 20.3 91 1.0 ESE 20 30 11 16 1014.5 1012.0 1.0
23/07:57pm 21.8 21.9 20.3 91 1.0 ESE 20 30 11 16 1014.4 1011.9 1.0
23/07:51pm 21.8 22.1 20.4 92 0.9 E 19 28 10 15 1014.4 1011.9 1.0
23/07:30pm 21.8 21.6 20.6 93 0.8 E 22 30 12 16 1014.0 1011.5 1.0
23/07:00pm 22.1 21.6 20.7 92 0.9 E 24 33 13 18 1013.7 1011.2 0.8
23/06:59pm 22.1 21.6 20.7 92 0.9 E 24 33 13 18 1013.7 1011.2 0.8
23/06:44pm 22.4 22.6 20.5 89 1.3 E 20 30 11 16 1013.7 1011.2 0.8
23/06:30pm 22.5 22.8 20.4 88 1.4 E 19 30 10 16 1013.5 1011.0 0.8
23/06:14pm 22.7 24.5 20.4 87 1.5 E 11 19 6 10 1013.3 1010.8 0.8
23/06:02pm 22.8 23.3 20.1 85 1.8 E 17 26 9 14 1013.1 1010.6 0.8
23/06:00pm 22.8 23.3 20.1 85 1.8 E 17 26 9 14 1013.1 1010.6 0.8
23/05:30pm 22.9 23.1 20.2 85 1.8 E 19 28 10 15 1012.6 1010.2 0.8
23/05:28pm 22.9 23.1 20.2 85 1.8 E 19 28 10 15 1012.5 1010.1 0.8
23/05:14pm 22.8 22.2 19.8 83 2.0 E 22 30 12 16 1012.5 1010.1 0.8
23/05:00pm 23.0 21.3 19.8 82 2.1 E 28 41 15 22 1012.3 1009.8 0.8
23/04:35pm 23.6 22.0 20.1 81 2.3 ESE 28 46 15 25 1012.2 1009.7 0.8
23/04:30pm 23.5 21.4 19.8 80 2.4 ESE 30 46 16 25 1012.2 1009.7 0.8
23/04:00pm 23.5 20.8 20.4 83 2.0 ESE 35 44 19 24 1012.1 1009.6 0.8
23/03:30pm 25.1 23.0 21.0 78 2.7 ESE 33 44 18 24 1011.9 1009.4 0.8
23/03:26pm 24.9 22.4 20.8 78 2.7 ESE 35 44 19 24 1011.9 1009.4 0.8
23/03:17pm 24.6 22.0 20.7 79 2.6 ESE 35 44 19 24 1011.9 1009.4 0.8
23/03:00pm 24.9 23.3 20.8 78 2.7 ESE 30 44 16 24 1012.1 1009.6 0.8
23/02:37pm 24.3 22.5 21.6 85 1.8 ESE 33 43 18 23 1012.0 1009.5 0.8
23/02:30pm 24.6 22.7 21.3 82 2.2 ESE 33 46 18 25 1012.1 1009.6 0.8
23/02:00pm 23.9 23.6 21.8 88 1.4 ESE 26 33 14 18 1012.9 1010.4 0.8
23/01:30pm 25.3 24.7 20.5 75 3.2 E 24 33 13 18 1013.2 1010.7 0.0
23/01:00pm 26.2 25.9 20.3 70 3.9 ESE 22 30 12 16 1013.3 1010.8 0.0
23/12:30pm 26.2 25.6 20.5 71 3.8 ESE 24 32 13 17 1013.6 1011.1 0.0
23/12:00pm 26.2 26.4 20.5 71 3.8 ESE 20 30 11 16 1014.0 1011.5 0.0
23/11:53am 26.1 26.4 20.7 72 3.6 ESE 20 26 11 14 1014.1 1011.6 0.0
23/11:30am 25.9 26.4 20.9 74 3.3 ESE 19 28 10 15 1014.3 1011.8 0.0
23/11:00am 25.6 26.4 20.6 74 3.3 ESE 17 24 9 13 1014.7 1012.3 0.0
23/10:30am 24.6 25.1 20.1 76 3.0 ESE 17 24 9 13 1015.3 1012.8 0.0
23/10:00am 23.7 23.9 20.2 81 2.3 E 19 26 10 14 1015.6 1013.1 0.0
23/09:30am 23.6 23.9 20.3 82 2.2 E 19 24 10 13 1015.5 1013.0 0.0
23/09:00am 23.0 23.1 20.3 85 1.8 ESE 20 26 11 14 1015.4 1012.9 0.0
23/08:30am 22.3 22.3 19.8 86 1.6 ESE 19 26 10 14 1015.4 1012.9 0.0
23/08:10am 22.3 22.7 19.8 86 1.6 ESE 17 22 9 12 1015.3 1012.8 0.0
23/08:09am 22.3 22.7 19.8 86 1.6 ESE 17 22 9 12 1015.3 1012.8 0.0
23/08:00am 22.1 22.5 19.8 87 1.5 ESE 17 24 9 13 1015.2 1012.7 0.0
23/07:59am 22.0 22.3 19.5 86 1.6 ESE 17 24 9 13 1015.3 1012.8 0.0
23/07:33am 22.0 22.0 19.7 87 1.5 ESE 19 24 10 13 1014.9 1012.5 0.0
23/07:30am 22.0 22.0 19.7 87 1.5 ESE 19 24 10 13 1014.8 1012.4 0.0
23/07:00am 21.3 22.5 19.8 91 1.0 ESE 13 19 7 10 1014.7 1012.3 0.0
23/06:30am 20.9 22.0 19.7 93 0.8 ESE 13 20 7 11 1014.3 1011.8 0.0
23/06:00am 20.3 21.6 19.3 94 0.6 ESE 11 19 6 10 1014.0 1011.5 0.0
23/05:30am 20.5 20.3 19.3 93 0.8 ESE 19 28 10 15 1013.6 1011.1 0.0
23/05:00am 20.5 20.3 19.3 93 0.8 ESE 19 30 10 16 1013.5 1011.0 0.0
23/04:30am 20.5 18.9 19.3 93 0.8 ESE 26 35 14 19 1013.1 1010.6 0.0
23/04:00am 20.7 20.0 19.4 92 0.8 ESE 22 33 12 18 1012.5 1010.1 0.0
23/03:30am 20.5 20.7 19.3 93 0.8 ESE 17 30 9 16 1012.4 1009.9 0.0
23/03:00am 20.6 19.0 19.1 91 1.0 ESE 26 35 14 19 1012.6 1010.2 0.0
23/02:30am 20.3 21.1 19.1 93 0.8 ESE 13 22 7 12 1012.9 1010.4 0.0
23/02:00am 20.1 19.7 18.9 93 0.8 SE 19 28 10 15 1013.0 1010.5 0.0
23/01:30am 20.1 20.0 18.8 92 0.8 SE 17 26 9 14 1013.4 1010.9 0.0
23/01:00am 20.5 20.0 18.6 89 1.2 SE 19 28 10 15 1013.5 1011.0 0.0
23/12:30am 20.2 19.5 18.3 89 1.2 ESE 19 28 10 15 1013.6 1011.1 0.0
23/12:00am 20.4 19.7 18.3 88 1.3 ESE 19 30 10 16 1013.9 1011.4 0.0
 
Date/Time
EST
Temp
°C
App
Temp
°C
Dew
Point
°C
Rel
Hum
%
Delta-T
°C
Wind Press
QNH
hPa
Press
MSL
hPa
Rain since
9am
mm
Dir  Spd
km/h
Gust
km/h
Spd
kts
Gust
kts
22/11:30pm 20.3 18.7 18.4 89 1.2 SE 24 33 13 18 1014.1 1011.6 0.0
22/11:00pm 20.2 19.0 18.5 90 1.1 ESE 22 33 12 18 1014.2 1011.7 0.0
22/10:30pm 20.4 18.1 18.5 89 1.2 SE 28 43 15 23 1014.5 1012.0 0.0
22/10:29pm 20.4 18.1 18.5 89 1.2 SE 28 43 15 23 1014.4 1011.9 0.0
22/10:00pm 20.2 20.6 18.9 92 0.8 SE 15 22 8 12 1014.8 1012.4 0.0
22/09:30pm 20.5 18.6 18.6 89 1.2 ESE 26 37 14 20 1014.9 1012.5 0.0
22/09:00pm 20.5 18.6 18.6 89 1.2 ESE 26 37 14 20 1014.9 1012.5 0.0
22/08:30pm 21.0 19.4 18.4 85 1.7 ESE 24 35 13 19 1014.8 1012.4 0.0
22/08:00pm 21.0 17.9 18.4 85 1.7 ESE 32 44 17 24 1014.5 1012.0 0.0
22/07:31pm 21.1 19.0 18.1 83 1.9 ESE 26 37 14 20 1014.5 1012.0 0.0
22/07:30pm 21.1 19.0 18.1 83 1.9 ESE 26 37 14 20 1014.5 1012.0 0.0
22/07:00pm 21.5 19.6 17.7 79 2.4 ESE 24 37 13 20 1014.3 1011.8 0.0
22/06:30pm 21.8 19.5 17.6 77 2.6 SE 26 33 14 18 1014.2 1011.7 0.0
22/06:00pm 22.1 19.5 17.7 76 2.8 ESE 28 43 15 23 1013.8 1011.3 0.0
22/05:30pm 22.6 20.3 17.7 74 3.1 ESE 26 41 14 22 1013.5 1011.0 0.0
22/05:00pm 22.7 20.0 17.6 73 3.2 SE 28 35 15 19 1013.3 1010.8 0.0
22/04:30pm 23.2 20.9 17.7 71 3.5 ESE 26 41 14 22 1013.2 1010.7 0.0
22/04:00pm 23.3 20.4 18.0 72 3.4 ESE 30 39 16 21 1013.2 1010.7 0.0
22/03:30pm 22.9 19.6 18.0 74 3.1 ESE 32 43 17 23 1013.2 1010.7 0.0
22/03:00pm 23.1 21.0 18.0 73 3.2 ESE 26 39 14 21 1013.6 1011.1 0.0
22/02:30pm 22.3 20.6 18.1 77 2.7 ESE 24 35 13 19 1013.8 1011.3 0.0
22/02:22pm 21.9 19.7 17.9 78 2.5 ESE 26 39 14 21 1013.8 1011.3 0.0
22/02:00pm 21.2 18.8 18.2 83 1.9 ESE 28 37 15 20 1013.9 1011.4 0.0
22/01:59pm 21.2 18.8 18.2 83 1.9 ESE 28 37 15 20 1014.0 1011.5 0.0
22/01:30pm 22.5 18.8 17.4 73 3.2 ESE 33 44 18 24 1014.0 1011.5 0.0
22/01:00pm 22.7 19.5 17.2 71 3.5 ESE 30 43 16 23 1014.1 1011.6 0.0
22/12:30pm 23.1 19.8 17.1 69 3.8 ESE 30 43 16 23 1014.3 1011.8 0.0
22/12:00pm 23.5 19.9 17.3 68 3.9 ESE 32 41 17 22 1014.4 1011.9 0.0
22/11:30am 22.9 18.5 16.7 68 3.9 ESE 35 50 19 27 1014.5 1012.0 0.0
22/11:01am 23.2 19.6 17.2 69 3.8 ESE 32 50 17 27 1014.8 1012.4 0.0
22/11:00am 23.0 19.0 16.8 68 3.9 ESE 33 50 18 27 1014.8 1012.4 0.0
22/10:30am 22.6 18.8 16.6 69 3.7 SE 32 46 17 25 1015.0 1012.6 0.0
22/10:20am 22.1 18.6 16.6 71 3.4 SE 30 48 16 26 1015.2 1012.7 0.0
22/10:08am 22.0 18.1 16.9 73 3.2 SE 33 46 18 25 1014.8 1012.4 0.0
22/10:00am 21.5 18.2 16.9 75 2.9 ESE 30 46 16 25 1014.9 1012.5 0.0
22/09:30am 20.7 16.9 16.7 78 2.5 ESE 32 50 17 27 1015.0 1012.6 0.0
22/09:27am 20.6 16.8 16.8 79 2.4 ESE 32 50 17 27 1014.9 1012.5 0.0
22/09:00am 20.6 16.8 16.8 79 2.3 ESE 32 46 17 25 1014.8 1012.4 0.0
22/08:31am 20.1 16.5 16.3 79 2.3 ESE 30 48 16 26 1014.9 1012.5 0.0
22/08:30am 20.2 16.7 16.4 79 2.3 ESE 30 44 16 24 1014.8 1012.4 0.0
22/08:00am 20.0 16.5 16.4 80 2.2 ESE 30 46 16 25 1014.3 1011.8 0.0
22/07:57am 20.1 16.9 16.3 79 2.3 ESE 28 46 15 25 1014.4 1011.9 0.0
22/07:30am 19.5 17.0 16.2 81 2.0 ESE 24 35 13 19 1014.6 1012.2 0.0
22/07:00am 19.1 15.7 15.8 81 2.0 ESE 28 37 15 20 1014.5 1012.0 0.0
22/06:59am 19.1 15.7 15.8 81 2.0 ESE 28 37 15 20 1014.4 1011.9 0.0
22/06:30am 18.9 17.0 15.2 79 2.2 ESE 19 30 10 16 1014.4 1011.9 0.0
22/06:00am 18.9 16.3 15.0 78 2.3 SE 22 37 12 20 1014.2 1011.7 0.0
22/05:30am 18.4 17.5 14.9 80 2.1 SSE 13 26 7 14 1014.0 1011.5 0.0
22/05:00am 18.4 16.3 14.7 79 2.2 SE 19 30 10 16 1013.9 1011.4 0.0
22/04:30am 18.3 16.9 14.6 79 2.2 ESE 15 28 8 15 1013.6 1011.1 0.0
22/04:00am 18.3 16.1 14.4 78 2.3 SE 19 28 10 15 1013.4 1010.9 0.0
22/03:30am 19.0 15.8 14.3 74 2.8 ESE 24 35 13 19 1013.7 1011.2 0.0
22/03:00am 19.2 15.9 14.0 72 3.1 SE 24 33 13 18 1013.7 1011.2 0.0
22/02:30am 19.2 16.7 14.0 72 3.1 SE 20 26 11 14 1013.6 1011.1 0.0
22/02:00am 19.2 16.9 14.0 72 3.1 SE 19 28 10 15 1013.5 1011.0 0.0
22/01:30am 18.9 17.4 14.2 74 2.8 SE 15 28 8 15 1013.8 1011.3 0.0
22/01:00am 18.9 16.6 14.0 73 2.9 ESE 19 28 10 15 1014.0 1011.5 0.0
22/12:30am 19.0 16.5 14.1 73 2.9 SE 20 30 11 16 1014.2 1011.7 0.0
22/12:00am 19.2 16.7 14.2 73 2.9 ESE 20 35 11 19 1014.4 1011.9 0.0
 
Date/Time
EST
Temp
°C
App
Temp
°C
Dew
Point
°C
Rel
Hum
%
Delta-T
°C
Wind Press
QNH
hPa
Press
MSL
hPa
Rain since
9am
mm
Dir  Spd
km/h
Gust
km/h
Spd
kts
Gust
kts
21/11:30pm 19.4 16.3 14.4 73 3.0 SE 24 39 13 21 1014.8 1012.4 0.0
21/11:00pm 19.6 16.5 14.6 73 3.0 ESE 24 33 13 18 1015.3 1012.8 0.0
21/10:30pm 19.8 16.7 14.6 72 3.1 SE 24 35 13 19 1015.5 1013.0 0.0
21/10:00pm 19.8 16.8 14.8 73 3.0 SE 24 33 13 18 1015.4 1012.9 0.0
21/09:30pm 20.2 17.6 14.8 71 3.2 SE 22 37 12 20 1015.4 1012.9 0.0
21/09:00pm 20.2 18.2 15.0 72 3.1 SE 19 32 10 17 1015.8 1013.3 0.0
21/08:30pm 20.5 16.8 15.1 71 3.2 ESE 28 39 15 21 1015.5 1013.0 0.0
21/08:00pm 21.0 17.3 14.9 68 3.7 ESE 28 39 15 21 1015.0 1012.6 0.0
21/07:30pm 21.5 17.4 14.9 66 4.0 SE 30 41 16 22 1014.6 1012.2 0.0
21/07:00pm 22.1 17.9 14.7 63 4.4 SE 30 43 16 23 1014.1 1011.6 0.0
21/06:30pm 22.5 17.9 14.6 61 4.7 SE 32 44 17 24 1013.8 1011.3 0.0
21/06:00pm 22.7 18.2 15.0 61 4.7 ESE 32 44 17 24 1013.4 1010.9 0.0
21/05:30pm 23.5 19.6 15.5 60 4.9 ESE 30 43 16 23 1012.9 1010.4 0.0
21/05:00pm 23.8 20.7 15.6 60 5.0 ESE 26 39 14 21 1012.9 1010.4 0.0
21/04:30pm 24.1 20.2 15.6 59 5.2 E 30 37 16 20 1012.6 1010.2 0.0
21/04:11pm 23.8 19.8 15.3 59 5.2 ESE 30 48 16 26 1012.4 1009.9 0.0

Other Formats:

Comma delimited format used in spreadsheet applications
http://www.bom.gov.au/fwo/IDQ60801/IDQ60801.99435.axf

JavaScript Object Notation format (JSON) in row-major order
http://www.bom.gov.au/fwo/IDQ60801/IDQ60801.99435.json